Time;durP1;ratioP1;P1;durP2;ratioP2;P2;SDS_P1;SDS_P2;PMS_P1;PMS_P2;Temp;Humidity;BMP_temperature;BMP_pressure;BME280_temperature;BME280_humidity;BME280_pressure;Samples;Min_cycle;Max_cycle;Signal;HPM_P1;HPM_P2
2021/07/06 00:00:49;;;;;;;0.20;0.20;;;21.60;99.90;;;;;;4916642;29;20210;-77
2021/07/06 00:03:17;;;;;;;0.20;0.20;;;21.40;99.90;;;;;;4916953;29;20206;-77
2021/07/06 00:05:45;;;;;;;0.20;0.20;;;21.80;99.90;;;;;;4916745;29;20235;-77
2021/07/06 00:08:14;;;;;;;0.20;0.20;;;21.40;99.90;;;;;;4916816;29;20234;-77
2021/07/06 00:10:42;;;;;;;0.20;0.20;;;21.50;99.90;;;;;;4917191;29;20222;-77
2021/07/06 00:13:10;;;;;;;0.20;0.20;;;21.20;99.90;;;;;;4917134;29;20591;-77
2021/07/06 00:15:38;;;;;;;0.20;0.20;;;21.20;99.90;;;;;;4916672;29;20211;-77
2021/07/06 00:18:06;;;;;;;0.30;0.30;;;21.10;99.90;;;;;;4916307;29;20293;-77
2021/07/06 00:20:34;;;;;;;0.20;0.20;;;21.10;99.90;;;;;;4916806;29;20629;-77
2021/07/06 00:23:04;;;;;;;0.20;0.20;;;21.00;99.90;;;;;;4916531;29;20203;-77
2021/07/06 00:25:33;;;;;;;0.20;0.20;;;20.70;99.90;;;;;;4916373;29;20577;-77
2021/07/06 00:28:01;;;;;;;0.20;0.20;;;20.70;99.90;;;;;;4916433;29;20214;-77
2021/07/06 00:30:29;;;;;;;0.20;0.20;;;20.80;99.90;;;;;;4916616;29;20285;-77
2021/07/06 00:32:58;;;;;;;0.30;0.30;;;;;;;;;;4916519;29;20265;-76
2021/07/06 00:35:25;;;;;;;0.20;0.20;;;21.00;99.90;;;;;;4916151;29;20211;-76
2021/07/06 00:37:53;;;;;;;0.20;0.20;;;20.70;99.90;;;;;;4916328;29;20265;-76
2021/07/06 00:40:22;;;;;;;0.20;0.20;;;;;;;;;;4916317;29;20262;-75
2021/07/06 00:42:58;;;;;;;0.30;0.30;;;21.00;99.90;;;;;;4915918;29;20206;-76
2021/07/06 00:45:27;;;;;;;0.30;0.30;;;20.50;99.90;;;;;;4916113;29;20253;-77
2021/07/06 00:47:59;;;;;;;0.20;0.20;;;20.80;99.90;;;;;;4916229;29;20275;-75
2021/07/06 00:50:28;;;;;;;0.20;0.20;;;20.80;99.90;;;;;;4916083;29;20654;-77
2021/07/06 00:52:57;;;;;;;0.20;0.20;;;20.40;99.90;;;;;;4916010;29;20696;-77
2021/07/06 00:55:25;;;;;;;0.30;0.30;;;20.50;99.90;;;;;;4915743;29;20211;-77
2021/07/06 00:57:54;;;;;;;0.20;0.20;;;20.70;99.90;;;;;;4915951;29;20210;-77
2021/07/06 01:00:24;;;;;;;0.20;0.20;;;20.70;99.90;;;;;;4915985;29;20207;-77
2021/07/06 01:02:53;;;;;;;0.30;0.30;;;20.40;99.90;;;;;;4915609;29;20668;-76
2021/07/06 01:05:22;;;;;;;0.20;0.20;;;20.40;99.90;;;;;;4915259;29;20210;-76
2021/07/06 01:07:52;;;;;;;0.30;0.30;;;20.40;99.90;;;;;;4915237;29;20266;-76
2021/07/06 01:10:20;;;;;;;0.30;0.30;;;20.40;99.90;;;;;;4915709;29;20207;-76
2021/07/06 01:12:52;;;;;;;0.30;0.30;;;19.80;99.90;;;;;;4916340;29;20227;-76
2021/07/06 01:15:23;;;;;;;0.30;0.30;;;20.30;99.90;;;;;;4918917;29;20210;-74
2021/07/06 01:17:59;;;;;;;0.20;0.20;;;20.60;99.90;;;;;;4918917;29;20262;-76
2021/07/06 01:20:27;;;;;;;0.30;0.30;;;20.30;99.90;;;;;;4918901;29;20259;-76
2021/07/06 01:22:57;;;;;;;0.20;0.20;;;20.10;99.90;;;;;;4919015;29;20198;-76
2021/07/06 01:25:25;;;;;;;0.30;0.30;;;20.20;99.90;;;;;;4918540;29;20214;-76
2021/07/06 01:27:53;;;;;;;0.20;0.20;;;20.10;99.90;;;;;;4918652;29;20207;-76
2021/07/06 01:30:21;;;;;;;0.30;0.30;;;19.90;99.90;;;;;;4918863;29;20202;-75
2021/07/06 01:32:49;;;;;;;0.30;0.30;;;20.40;99.90;;;;;;4918916;29;20734;-76
2021/07/06 01:35:18;;;;;;;0.20;0.20;;;19.90;99.90;;;;;;4920367;29;20668;-77
2021/07/06 01:37:48;;;;;;;0.20;0.20;;;20.30;99.90;;;;;;4919093;29;20274;-77
2021/07/06 01:40:20;;;;;;;0.30;0.30;;;20.60;99.90;;;;;;4919200;29;20206;-77
2021/07/06 01:42:49;;;;;;;0.20;0.20;;;20.20;99.90;;;;;;4919262;29;20297;-77
2021/07/06 01:45:19;;;;;;;0.20;0.20;;;20.10;99.90;;;;;;4919134;29;20385;-77
2021/07/06 01:47:49;;;;;;;0.20;0.20;;;20.20;99.90;;;;;;4919205;29;20207;-77
2021/07/06 01:50:19;;;;;;;0.28;0.28;;;19.80;99.90;;;;;;4919106;29;20262;-76
2021/07/06 01:52:49;;;;;;;0.20;0.20;;;20.00;99.90;;;;;;4919382;29;20218;-77
2021/07/06 01:55:20;;;;;;;0.20;0.20;;;19.80;99.90;;;;;;4919075;29;20241;-77
2021/07/06 01:57:49;;;;;;;0.20;0.20;;;20.10;99.90;;;;;;4919379;29;20221;-77
2021/07/06 02:00:20;;;;;;;0.20;0.20;;;20.00;99.90;;;;;;4919581;29;20751;-76
2021/07/06 02:02:49;;;;;;;0.30;0.30;;;20.00;99.90;;;;;;4919721;29;20247;-76
2021/07/06 02:05:27;;;;;;;0.30;0.30;;;19.70;99.90;;;;;;4919485;29;20214;-77
2021/07/06 02:07:55;;;;;;;0.30;0.30;;;19.90;99.90;;;;;;4919237;29;20217;-77
2021/07/06 02:10:26;;;;;;;0.20;0.20;;;19.70;99.90;;;;;;4919502;29;20206;-77
2021/07/06 02:12:54;;;;;;;0.30;0.30;;;19.40;99.90;;;;;;4920163;29;20299;-77
2021/07/06 02:15:22;;;;;;;0.30;0.30;;;19.70;99.90;;;;;;4919501;29;20210;-77
2021/07/06 02:17:51;;;;;;;0.30;0.30;;;19.40;99.90;;;;;;4919592;29;20207;-77
2021/07/06 02:20:20;;;;;;;0.20;0.20;;;19.50;99.90;;;;;;4920047;29;20603;-77
2021/07/06 02:22:50;;;;;;;0.30;0.30;;;19.30;99.90;;;;;;4920477;29;20262;-76
2021/07/06 02:25:20;;;;;;;0.25;0.25;;;19.60;99.90;;;;;;4926545;29;20751;-77
2021/07/06 02:27:49;;;;;;;0.30;0.30;;;19.70;99.90;;;;;;4926693;29;20226;-77
2021/07/06 02:30:19;;;;;;;0.30;0.30;;;19.60;99.90;;;;;;4927256;29;20743;-77
2021/07/06 02:32:47;;;;;;;0.20;0.20;;;19.50;99.90;;;;;;4927815;29;20230;-76
2021/07/06 02:35:16;;;;;;;0.30;0.30;;;19.40;99.90;;;;;;4927620;29;20207;-77
2021/07/06 02:37:44;;;;;;;0.20;0.20;;;19.10;99.90;;;;;;4929367;29;20243;-77
2021/07/06 02:40:15;;;;;;;0.20;0.20;;;19.10;99.90;;;;;;4928253;29;20207;-76
2021/07/06 02:42:43;;;;;;;0.30;0.30;;;19.30;99.90;;;;;;4918475;29;20226;-77
2021/07/06 02:45:14;;;;;;;0.30;0.30;;;19.60;99.90;;;;;;4917820;29;20211;-74
2021/07/06 02:47:42;;;;;;;0.30;0.30;;;19.40;99.90;;;;;;4917898;29;20210;-77
2021/07/06 02:50:12;;;;;;;0.30;0.30;;;19.40;99.90;;;;;;4917966;29;20492;-77
2021/07/06 02:52:40;;;;;;;0.30;0.30;;;18.90;99.90;;;;;;4917735;29;20278;-77
2021/07/06 02:55:09;;;;;;;0.40;0.40;;;19.40;99.90;;;;;;4918054;29;20219;-77
2021/07/06 02:57:40;;;;;;;0.30;0.30;;;19.50;99.90;;;;;;4918236;29;20581;-77
2021/07/06 03:00:14;;;;;;;0.30;0.30;;;19.20;99.90;;;;;;4918246;29;20237;-76
2021/07/06 03:02:45;;;;;;;0.30;0.30;;;19.60;99.90;;;;;;4920436;29;20282;-76
2021/07/06 03:05:15;;;;;;;0.30;0.30;;;19.40;99.90;;;;;;4920924;29;20215;-77
2021/07/06 03:07:44;;;;;;;0.38;0.38;;;19.30;99.90;;;;;;4920074;29;20206;-75
2021/07/06 03:10:14;;;;;;;0.30;0.30;;;19.80;99.90;;;;;;4918235;29;20207;-77
2021/07/06 03:12:43;;;;;;;0.30;0.30;;;19.60;99.90;;;;;;4917432;29;20266;-77
2021/07/06 03:15:15;;;;;;;0.30;0.30;;;19.50;99.90;;;;;;4917257;29;20686;-76
2021/07/06 03:17:43;;;;;;;0.40;0.40;;;19.40;99.90;;;;;;4917231;29;20203;-75
2021/07/06 03:20:14;;;;;;;0.30;0.30;;;19.30;99.90;;;;;;4916822;29;20213;-77
2021/07/06 03:22:42;;;;;;;0.30;0.30;;;19.00;99.90;;;;;;4916724;29;20254;-76
2021/07/06 03:25:12;;;;;;;0.30;0.30;;;19.60;99.90;;;;;;4916637;29;20211;-77
2021/07/06 03:27:41;;;;;;;0.30;0.30;;;19.10;99.90;;;;;;4916668;29;20211;-76
2021/07/06 03:30:14;;;;;;;0.40;0.40;;;19.20;99.90;;;;;;4916468;29;20683;-75
2021/07/06 03:32:41;;;;;;;0.40;0.40;;;19.30;99.90;;;;;;4916515;29;20206;-75
2021/07/06 03:35:11;;;;;;;0.30;0.30;;;19.20;99.90;;;;;;4915927;29;20332;-76
2021/07/06 03:37:39;;;;;;;0.40;0.40;;;19.10;99.90;;;;;;4916321;29;20206;-76
2021/07/06 03:40:08;;;;;;;0.30;0.30;;;19.00;99.90;;;;;;4916844;29;20262;-76
2021/07/06 03:42:37;;;;;;;0.40;0.40;;;19.50;99.90;;;;;;4916566;29;20210;-76
2021/07/06 03:45:07;;;;;;;0.30;0.30;;;19.30;99.90;;;;;;4916385;29;20211;-75
2021/07/06 03:47:37;;;;;;;0.30;0.30;;;19.30;99.90;;;;;;4916221;29;20207;-76
2021/07/06 03:50:08;;;;;;;0.30;0.30;;;19.20;99.90;;;;;;4916357;29;20313;-77
2021/07/06 03:52:36;;;;;;;0.30;0.30;;;19.20;99.90;;;;;;4916195;29;20267;-77
2021/07/06 03:55:05;;;;;;;0.30;0.30;;;19.50;99.90;;;;;;4916164;29;20712;-76
2021/07/06 03:57:33;;;;;;;0.38;0.38;;;;;;;;;;4910047;29;20278;-76
2021/07/06 04:00:04;;;;;;;0.20;0.20;;;19.70;99.90;;;;;;4914195;29;20223;-76
2021/07/06 04:02:32;;;;;;;0.30;0.30;;;19.50;99.90;;;;;;4915900;29;20672;-78
2021/07/06 04:05:02;;;;;;;0.30;0.30;;;19.60;99.90;;;;;;4915857;29;20206;-76
2021/07/06 04:07:30;;;;;;;0.20;0.20;;;19.60;99.90;;;;;;4915970;29;20207;-76
2021/07/06 04:09:58;;;;;;;0.30;0.30;;;19.70;99.90;;;;;;4924380;23;20242;-75
2021/07/06 04:12:26;;;;;;;0.28;0.28;;;19.80;99.90;;;;;;4915684;29;20615;-75
2021/07/06 04:14:54;;;;;;;0.30;0.30;;;19.90;99.90;;;;;;4915906;29;20231;-76
2021/07/06 04:17:22;;;;;;;0.20;0.20;;;19.90;99.90;;;;;;4915933;29;20210;-76
2021/07/06 04:19:50;;;;;;;0.30;0.30;;;19.80;99.90;;;;;;4916023;29;20227;-77
2021/07/06 04:22:19;;;;;;;0.20;0.20;;;19.90;99.90;;;;;;4915789;29;20210;-76
2021/07/06 04:24:47;;;;;;;0.20;0.20;;;19.90;99.90;;;;;;4915816;29;20277;-76
2021/07/06 04:27:15;;;;;;;0.30;0.30;;;20.00;99.90;;;;;;4915158;29;20231;-75
2021/07/06 04:29:43;;;;;;;0.30;0.30;;;20.10;99.90;;;;;;4915539;29;20290;-76
2021/07/06 04:32:11;;;;;;;0.20;0.20;;;20.00;99.90;;;;;;4915642;29;20755;-76
2021/07/06 04:34:38;;;;;;;0.20;0.20;;;20.10;99.90;;;;;;4915493;29;20622;-76
2021/07/06 04:37:06;;;;;;;0.22;0.22;;;20.20;99.90;;;;;;4915616;29;20202;-76
2021/07/06 04:39:36;;;;;;;0.30;0.30;;;20.20;99.90;;;;;;4915832;29;20603;-76
2021/07/06 04:42:04;;;;;;;0.40;0.40;;;20.20;99.90;;;;;;4915540;29;20679;-76
2021/07/06 04:44:32;;;;;;;0.20;0.20;;;20.30;99.90;;;;;;4915503;29;20238;-77
2021/07/06 04:47:00;;;;;;;0.30;0.30;;;20.40;99.90;;;;;;4919687;29;20214;-77
2021/07/06 04:49:28;;;;;;;0.30;0.30;;;20.40;99.90;;;;;;4913442;29;20219;-77
2021/07/06 04:51:56;;;;;;;0.30;0.30;;;20.50;99.90;;;;;;4921621;29;20235;-77
2021/07/06 04:54:24;;;;;;;0.20;0.20;;;20.50;99.90;;;;;;4921783;29;20635;-77
2021/07/06 04:56:54;;;;;;;0.30;0.30;;;20.50;99.90;;;;;;4921104;29;20210;-77
2021/07/06 04:59:22;;;;;;;0.20;0.20;;;20.60;99.90;;;;;;4921100;29;20294;-77
2021/07/06 05:01:50;;;;;;;0.20;0.20;;;20.60;99.90;;;;;;4921824;29;20274;-77
2021/07/06 05:04:18;;;;;;;0.30;0.30;;;20.70;99.90;;;;;;4919559;29;20206;-77
2021/07/06 05:06:47;;;;;;;0.20;0.20;;;20.70;99.90;;;;;;4916887;29;20668;-76
2021/07/06 05:09:15;;;;;;;0.30;0.30;;;20.70;99.90;;;;;;4919984;29;20278;-76
2021/07/06 05:11:43;;;;;;;0.30;0.30;;;20.70;99.90;;;;;;4920110;29;20246;-77
2021/07/06 05:14:12;;;;;;;0.30;0.30;;;20.70;99.90;;;;;;4918750;29;20271;-76
2021/07/06 05:16:40;;;;;;;0.20;0.20;;;20.20;99.90;;;;;;4920360;29;20286;-78
2021/07/06 05:19:07;;;;;;;0.20;0.20;;;20.90;99.90;;;;;;4920727;29;20836;-77
2021/07/06 05:21:36;;;;;;;0.20;0.20;;;20.90;99.90;;;;;;4918559;29;20214;-75
2021/07/06 05:24:08;;;;;;;0.20;0.20;;;20.90;99.90;;;;;;4918572;29;20199;-75
2021/07/06 05:26:36;;;;;;;0.20;0.20;;;21.00;99.90;;;;;;4917524;29;20210;-76
2021/07/06 05:29:05;;;;;;;0.20;0.20;;;21.00;99.90;;;;;;4918836;29;20226;-76
2021/07/06 05:31:34;;;;;;;0.20;0.20;;;21.20;99.90;;;;;;4918731;29;20226;-75
2021/07/06 05:34:02;;;;;;;0.20;0.20;;;21.30;99.90;;;;;;4917770;29;20251;-75
2021/07/06 05:36:30;;;;;;;0.20;0.20;;;21.30;99.90;;;;;;4918259;29;20206;-75
2021/07/06 05:38:58;;;;;;;0.30;0.30;;;21.30;99.90;;;;;;4918459;29;20254;-76
2021/07/06 05:41:26;;;;;;;0.20;0.20;;;21.40;99.90;;;;;;4918612;29;20735;-75
2021/07/06 05:43:54;;;;;;;0.30;0.30;;;21.50;99.90;;;;;;4918707;29;20207;-74
2021/07/06 05:46:21;;;;;;;0.20;0.20;;;21.60;99.90;;;;;;4918527;29;20282;-75
2021/07/06 05:48:51;;;;;;;0.20;0.20;;;21.60;99.90;;;;;;4918368;29;20226;-75
2021/07/06 05:51:18;;;;;;;0.20;0.20;;;21.80;99.90;;;;;;4918184;29;20214;-75
2021/07/06 05:53:49;;;;;;;0.20;0.20;;;21.90;99.90;;;;;;4918376;29;20266;-75
2021/07/06 05:56:17;;;;;;;0.30;0.30;;;22.10;99.90;;;;;;4917866;29;20282;-76
2021/07/06 05:58:45;;;;;;;0.20;0.20;;;22.10;99.90;;;;;;4917325;29;20708;-75
2021/07/06 06:01:13;;;;;;;0.20;0.20;;;;;;;;;;4918095;29;20210;-75
2021/07/06 06:03:41;;;;;;;0.20;0.20;;;22.10;99.90;;;;;;4918113;29;20206;-76
2021/07/06 06:06:11;;;;;;;0.20;0.20;;;22.10;99.90;;;;;;4918070;29;20198;-76
2021/07/06 06:08:39;;;;;;;0.20;0.20;;;22.20;99.90;;;;;;4918085;29;20280;-74
2021/07/06 06:11:07;;;;;;;0.20;0.20;;;22.20;99.90;;;;;;4917964;29;20231;-75
2021/07/06 06:13:35;;;;;;;0.20;0.20;;;22.20;99.90;;;;;;4917916;29;20214;-75
2021/07/06 06:16:04;;;;;;;0.25;0.25;;;22.10;99.90;;;;;;4917496;29;20237;-76
2021/07/06 06:18:32;;;;;;;0.20;0.20;;;22.20;99.90;;;;;;4918037;29;20234;-76
2021/07/06 06:21:00;;;;;;;0.20;0.20;;;22.30;99.90;;;;;;4917988;29;20668;-76
2021/07/06 06:23:29;;;;;;;0.20;0.20;;;22.40;99.90;;;;;;4917690;29;20207;-76
2021/07/06 06:25:57;;;;;;;0.20;0.20;;;22.50;99.90;;;;;;4917534;29;20254;-76
2021/07/06 06:28:25;;;;;;;0.20;0.20;;;22.70;99.90;;;;;;4917592;29;20270;-75
2021/07/06 06:30:54;;;;;;;0.20;0.20;;;22.60;99.90;;;;;;4917632;29;20206;-76
2021/07/06 06:33:23;;;;;;;0.20;0.20;;;22.80;99.90;;;;;;4917567;29;20703;-76
2021/07/06 06:35:50;;;;;;;0.20;0.20;;;22.90;99.90;;;;;;4917472;29;20261;-75
2021/07/06 06:38:18;;;;;;;0.20;0.20;;;23.00;99.90;;;;;;4917534;29;20206;-75
2021/07/06 06:40:47;;;;;;;0.20;0.20;;;23.00;99.90;;;;;;4917545;29;20628;-75
2021/07/06 06:43:15;;;;;;;0.20;0.20;;;23.00;99.90;;;;;;4917293;29;20637;-75
2021/07/06 06:45:45;;;;;;;0.10;0.10;;;23.00;99.90;;;;;;4917402;29;20261;-74
2021/07/06 06:48:13;;;;;;;0.20;0.20;;;23.20;99.90;;;;;;4917773;29;20234;-74
2021/07/06 06:50:41;;;;;;;0.20;0.20;;;;;;;;;;4917433;29;20211;-74
2021/07/06 06:53:09;;;;;;;0.20;0.20;;;23.00;99.90;;;;;;4917143;29;20235;-74
2021/07/06 06:55:37;;;;;;;0.20;0.20;;;23.10;99.90;;;;;;4916820;29;20286;-75
2021/07/06 06:58:06;;;;;;;0.20;0.20;;;23.30;99.90;;;;;;4916978;29;20218;-75
2021/07/06 07:00:36;;;;;;;0.20;0.20;;;23.20;99.90;;;;;;4917294;29;20214;-75
2021/07/06 07:03:06;;;;;;;0.10;0.10;;;23.40;99.90;;;;;;4917186;29;20207;-76
2021/07/06 07:05:34;;;;;;;0.10;0.10;;;23.40;99.90;;;;;;4916814;29;20207;-75
2021/07/06 07:08:02;;;;;;;0.10;0.10;;;23.50;99.90;;;;;;4916790;29;20258;-75
2021/07/06 07:10:29;;;;;;;0.10;0.10;;;23.60;99.90;;;;;;4915674;29;20305;-75
2021/07/06 07:12:57;;;;;;;0.20;0.20;;;23.70;99.90;;;;;;4916645;29;20254;-75
2021/07/06 07:15:27;;;;;;;0.20;0.20;;;23.70;99.90;;;;;;4916537;29;20711;-74
2021/07/06 07:17:55;;;;;;;0.10;0.10;;;;;;;;;;4916793;29;20235;-75
2021/07/06 07:20:23;;;;;;;0.20;0.20;;;23.90;99.90;;;;;;4916694;29;20265;-75
2021/07/06 07:22:51;;;;;;;0.20;0.20;;;24.00;99.90;;;;;;4916529;29;20206;-75
2021/07/06 07:25:20;;;;;;;0.10;0.10;;;24.10;99.90;;;;;;4916642;29;20202;-75
2021/07/06 07:27:48;;;;;;;0.20;0.20;;;24.10;99.90;;;;;;4916676;29;20237;-75
2021/07/06 07:30:18;;;;;;;0.10;0.10;;;24.30;99.90;;;;;;4916575;29;20230;-75
2021/07/06 07:32:49;;;;;;;0.20;0.20;;;24.40;99.90;;;;;;4916485;29;20203;-75
2021/07/06 07:35:18;;;;;;;0.10;0.10;;;24.50;99.90;;;;;;4916561;29;20222;-75
2021/07/06 07:37:46;;;;;;;0.10;0.10;;;24.50;99.90;;;;;;4916470;29;20215;-75
2021/07/06 07:40:17;;;;;;;0.10;0.10;;;24.60;99.90;;;;;;4916528;29;20222;-75
2021/07/06 07:42:45;;;;;;;0.10;0.10;;;24.70;99.90;;;;;;4916421;29;20246;-75
2021/07/06 07:45:14;;;;;;;0.10;0.10;;;24.80;99.90;;;;;;4916205;29;20634;-75
2021/07/06 07:47:42;;;;;;;0.20;0.20;;;24.90;99.90;;;;;;4916223;29;20206;-75
2021/07/06 07:50:12;;;;;;;0.10;0.10;;;25.00;99.90;;;;;;4916479;29;20226;-75
2021/07/06 07:52:40;;;;;;;0.10;0.10;;;25.10;99.90;;;;;;4916289;29;20270;-76
2021/07/06 07:55:10;;;;;;;0.10;0.10;;;25.20;99.90;;;;;;4915947;29;20211;-75
2021/07/06 07:57:38;;;;;;;0.10;0.10;;;25.20;99.90;;;;;;4916045;29;20641;-76
2021/07/06 08:00:07;;;;;;;0.15;0.15;;;25.30;99.90;;;;;;4916044;29;20259;-76
2021/07/06 08:02:43;;;;;;;0.17;0.17;;;25.40;99.90;;;;;;4916266;29;20207;-76
2021/07/06 08:05:15;;;;;;;0.10;0.10;;;25.40;99.90;;;;;;4916045;29;20211;-76
2021/07/06 08:07:43;;;;;;;0.10;0.10;;;25.50;99.90;;;;;;4915950;29;20207;-76
2021/07/06 08:10:12;;;;;;;0.10;0.10;;;25.50;99.40;;;;;;4915868;29;20234;-76
2021/07/06 08:12:40;;;;;;;0.10;0.10;;;25.60;99.00;;;;;;4915859;29;20207;-76
2021/07/06 08:15:12;;;;;;;0.20;0.20;;;;;;;;;;4916985;29;20285;-76
2021/07/06 08:17:40;;;;;;;0.10;0.10;;;25.60;98.50;;;;;;4916913;29;20586;-75
2021/07/06 08:20:09;;;;;;;0.10;0.10;;;25.80;97.80;;;;;;4916459;29;20223;-75
2021/07/06 08:22:39;;;;;;;0.10;0.10;;;25.90;97.90;;;;;;4916675;29;20213;-75
2021/07/06 08:25:08;;;;;;;0.10;0.10;;;25.90;97.20;;;;;;4916539;29;20211;-75
2021/07/06 08:27:36;;;;;;;0.10;0.10;;;25.90;96.90;;;;;;4915688;29;20667;-76
2021/07/06 08:30:07;;;;;;;0.10;0.10;;;26.00;97.10;;;;;;4915996;29;20642;-76
2021/07/06 08:32:35;;;;;;;0.10;0.10;;;26.10;96.90;;;;;;4915984;29;20210;-75
2021/07/06 08:35:05;;;;;;;0.10;0.10;;;26.20;96.40;;;;;;4915797;29;20206;-76
2021/07/06 08:37:36;;;;;;;0.10;0.10;;;26.20;95.00;;;;;;4915573;29;20436;-76
2021/07/06 08:40:07;;;;;;;0.10;0.10;;;26.20;93.90;;;;;;4915551;29;20254;-75
2021/07/06 08:42:37;;;;;;;0.10;0.10;;;26.20;93.50;;;;;;4915713;29;20672;-76
2021/07/06 08:45:06;;;;;;;0.10;0.10;;;26.20;93.70;;;;;;4915618;29;20254;-75
2021/07/06 08:47:34;;;;;;;0.10;0.10;;;26.20;93.10;;;;;;4915531;29;20668;-76
2021/07/06 08:50:08;;;;;;;0.10;0.10;;;26.20;94.40;;;;;;4915508;29;20265;-76
2021/07/06 08:52:40;;;;;;;0.10;0.10;;;26.30;94.20;;;;;;4915800;29;20626;-75
2021/07/06 08:55:13;;;;;;;0.10;0.10;;;26.30;94.50;;;;;;4915383;29;20214;-75
2021/07/06 08:57:42;;;;;;;0.10;0.10;;;26.20;94.70;;;;;;4915750;29;20230;-76
2021/07/06 09:00:13;;;;;;;0.10;0.10;;;26.40;95.10;;;;;;4915484;29;20321;-76
2021/07/06 09:02:41;;;;;;;0.10;0.10;;;26.30;93.60;;;;;;4915469;29;20239;-75
2021/07/06 09:05:20;;;;;;;0.10;0.10;;;26.40;92.80;;;;;;4915175;29;20209;-76
2021/07/06 09:07:48;;;;;;;0.10;0.10;;;26.40;93.20;;;;;;4915609;29;20203;-76
2021/07/06 09:10:19;;;;;;;0.10;0.10;;;26.40;92.30;;;;;;4915163;29;20775;-76
2021/07/06 09:12:47;;;;;;;0.10;0.10;;;26.50;92.40;;;;;;4915483;29;20242;-75
2021/07/06 09:15:26;;;;;;;0.10;0.10;;;26.60;92.50;;;;;;4914996;29;20748;-75
2021/07/06 09:18:09;;;;;;;0.10;0.10;;;26.70;92.00;;;;;;4915308;29;20226;-76
2021/07/06 09:20:38;;;;;;;0.10;0.10;;;26.60;91.40;;;;;;4915278;29;20348;-75
2021/07/06 09:23:19;;;;;;;0.10;0.10;;;26.70;92.50;;;;;;4915332;29;20207;-76
2021/07/06 09:26:07;;;;;;;0.10;0.10;;;26.70;91.80;;;;;;4914974;29;20214;-76
2021/07/06 09:28:38;;;;;;;0.10;0.10;;;26.80;91.90;;;;;;4915328;29;20227;-74
2021/07/06 09:31:31;;;;;;;0.10;0.10;;;27.00;92.00;;;;;;4915438;29;20210;-75
2021/07/06 09:34:04;;;;;;;0.10;0.10;;;26.90;91.60;;;;;;4916121;29;20207;-75
2021/07/06 09:36:35;;;;;;;0.17;0.17;;;26.90;91.80;;;;;;4918620;29;20290;-75
2021/07/06 09:39:15;;;;;;;0.10;0.10;;;26.90;92.20;;;;;;4918521;29;20226;-75
2021/07/06 09:41:57;;;;;;;0.10;0.10;;;26.90;90.80;;;;;;4918953;29;20727;-74
2021/07/06 09:44:28;;;;;;;0.10;0.10;;;26.90;90.60;;;;;;4918393;29;20257;-74
2021/07/06 09:46:59;;;;;;;0.10;0.10;;;26.90;90.20;;;;;;4918311;29;20739;-75
2021/07/06 09:49:30;;;;;;;0.10;0.10;;;27.00;90.40;;;;;;4918504;29;20272;-74
2021/07/06 09:52:08;;;;;;;0.10;0.10;;;27.00;88.10;;;;;;4918709;29;20206;-75
2021/07/06 09:54:39;;;;;;;0.10;0.10;;;27.10;90.20;;;;;;4918308;29;20340;-75
2021/07/06 09:57:20;;;;;;;0.10;0.10;;;27.10;90.50;;;;;;4917966;29;20227;-75
2021/07/06 10:00:05;;;;;;;0.10;0.10;;;27.20;90.00;;;;;;4918334;29;20234;-74
2021/07/06 10:02:35;;;;;;;0.10;0.10;;;27.20;89.70;;;;;;4918326;29;20257;-75
2021/07/06 10:05:08;;;;;;;0.10;0.10;;;27.20;90.40;;;;;;4918149;29;20634;-75
2021/07/06 10:07:38;;;;;;;0.10;0.10;;;27.20;88.20;;;;;;4918142;29;20215;-74
2021/07/06 10:10:10;;;;;;;0.10;0.10;;;27.20;88.60;;;;;;4919089;29;20314;-76
2021/07/06 10:12:40;;;;;;;0.10;0.10;;;27.20;90.00;;;;;;4919153;29;20301;-77
2021/07/06 10:15:10;;;;;;;0.10;0.10;;;27.20;88.80;;;;;;4920681;29;20294;-77
2021/07/06 10:17:49;;;;;;;0.10;0.10;;;27.30;89.90;;;;;;4920460;29;20681;-77
2021/07/06 10:20:20;;;;;;;0.10;0.10;;;27.40;88.80;;;;;;4920915;29;20257;-77
2021/07/06 10:22:50;;;;;;;0.10;0.10;;;27.40;88.10;;;;;;4921172;29;20207;-77
2021/07/06 10:25:23;;;;;;;0.10;0.10;;;27.40;88.40;;;;;;4920350;29;20237;-75
2021/07/06 10:27:55;;;;;;;0.10;0.10;;;27.50;88.80;;;;;;4920712;29;20207;-76
2021/07/06 10:30:26;;;;;;;0.10;0.10;;;27.60;88.40;;;;;;4920401;29;20278;-77
2021/07/06 10:32:56;;;;;;;0.10;0.10;;;27.60;87.50;;;;;;4920896;29;20282;-77
2021/07/06 10:35:47;;;;;;;0.10;0.10;;;27.70;87.00;;;;;;4919996;29;20211;-77
2021/07/06 10:38:47;;;;;;;0.10;0.10;;;27.80;92.30;;;;;;4920152;29;20234;-77
2021/07/06 10:41:21;;;;;;;0.10;0.10;;;27.80;86.50;;;;;;4920263;29;20210;-77
2021/07/06 10:43:54;;;;;;;0.10;0.10;;;27.80;86.30;;;;;;4920995;29;20288;-75
2021/07/06 10:46:46;;;;;;;0.10;0.10;;;27.80;87.10;;;;;;4920688;29;20210;-76
2021/07/06 10:49:18;;;;;;;0.10;0.10;;;27.80;85.90;;;;;;4923989;29;20317;-77
2021/07/06 10:51:49;;;;;;;0.10;0.10;;;27.90;85.50;;;;;;4926222;29;20258;-74
2021/07/06 10:54:25;;;;;;;0.10;0.10;;;27.90;82.70;;;;;;4917542;29;20258;-75
2021/07/06 10:56:54;;;;;;;0.10;0.10;;;28.00;82.80;;;;;;4923088;29;20227;-76
2021/07/06 10:59:24;;;;;;;0.10;0.10;;;28.10;83.90;;;;;;4919061;29;20231;-74
2021/07/06 11:02:00;;;;;;;0.10;0.10;;;28.20;84.20;;;;;;4919325;29;20623;-77
2021/07/06 11:04:53;;;;;;;0.10;0.10;;;28.20;83.10;;;;;;4920321;29;20214;-76
2021/07/06 11:07:53;;;;;;;0.10;0.10;;;28.40;84.60;;;;;;4916879;29;20573;-75
2021/07/06 11:10:43;;;;;;;0.10;0.10;;;28.50;84.20;;;;;;4916807;29;20242;-76
2021/07/06 11:13:17;;;;;;;0.10;0.10;;;28.40;82.00;;;;;;4916960;29;20675;-76
2021/07/06 11:15:46;;;;;;;0.10;0.10;;;28.40;81.60;;;;;;4916578;29;20298;-76
2021/07/06 11:18:15;;;;;;;0.10;0.10;;;28.50;85.40;;;;;;4916599;29;20274;-76
2021/07/06 11:20:48;;;;;;;0.10;0.10;;;28.70;85.10;;;;;;4916759;29;20210;-76
2021/07/06 11:23:21;;;;;;;0.10;0.10;;;28.70;83.60;;;;;;4916876;29;20254;-76
2021/07/06 11:25:49;;;;;;;0.10;0.10;;;28.80;85.60;;;;;;4916451;29;20266;-75
2021/07/06 11:28:25;;;;;;;0.10;0.10;;;28.80;84.50;;;;;;4916608;29;20199;-75
2021/07/06 11:30:56;;;;;;;0.10;0.10;;;28.90;84.40;;;;;;4916543;29;20221;-75
2021/07/06 11:33:25;;;;;;;0.10;0.10;;;28.80;81.90;;;;;;4916536;29;20217;-75
2021/07/06 11:35:55;;;;;;;0.10;0.10;;;28.90;84.90;;;;;;4916300;29;20235;-76
2021/07/06 11:38:25;;;;;;;0.10;0.10;;;28.90;85.00;;;;;;4916472;29;20290;-76
2021/07/06 11:40:55;;;;;;;0.10;0.10;;;28.90;82.90;;;;;;4916408;29;20246;-76
2021/07/06 11:43:24;;;;;;;0.10;0.10;;;28.90;83.90;;;;;;4917220;29;20538;-76
2021/07/06 11:45:54;;;;;;;0.10;0.10;;;29.10;84.50;;;;;;4916106;29;20207;-76
2021/07/06 11:48:24;;;;;;;0.10;0.10;;;29.10;82.20;;;;;;4916209;29;20199;-76
2021/07/06 11:50:52;;;;;;;0.10;0.10;;;29.20;82.90;;;;;;4916437;29;20210;-76
2021/07/06 11:53:25;;;;;;;0.10;0.10;;;29.30;84.00;;;;;;4916351;29;20270;-76
2021/07/06 11:55:55;;;;;;;0.10;0.10;;;29.40;82.70;;;;;;4916114;29;20692;-76
2021/07/06 11:58:26;;;;;;;0.10;0.10;;;29.60;90.10;;;;;;4915723;29;20639;-76
2021/07/06 12:00:59;;;;;;;0.10;0.10;;;29.60;82.00;;;;;;4916213;29;20744;-74
2021/07/06 12:03:28;;;;;;;0.10;0.10;;;29.70;82.30;;;;;;4916194;29;20313;-76
2021/07/06 12:05:58;;;;;;;0.10;0.10;;;30.00;80.80;;;;;;4915873;29;20211;-76
2021/07/06 12:08:27;;;;;;;0.10;0.10;;;30.40;91.20;;;;;;4916174;29;20254;-76
2021/07/06 12:11:06;;;;;;;0.10;0.10;;;30.10;78.20;;;;;;4916045;29;20206;-76
2021/07/06 12:13:46;;;;;;;0.10;0.10;;;30.30;78.70;;;;;;4916316;29;20290;-77
2021/07/06 12:16:17;;;;;;;0.10;0.10;;;30.40;76.60;;;;;;4916421;29;20227;-76
2021/07/06 12:18:51;;;;;;;0.10;0.10;;;30.60;76.70;;;;;;4916362;29;20245;-76
2021/07/06 12:21:25;;;;;;;0.10;0.10;;;30.80;77.30;;;;;;4916513;29;20209;-76
2021/07/06 12:23:56;;;;;;;0.10;0.10;;;31.40;99.90;;;;;;4917222;29;20326;-77
2021/07/06 12:26:24;;;;;;;0.10;0.10;;;31.40;78.80;;;;;;4916687;29;20630;-76
2021/07/06 12:28:52;;;;;;;0.10;0.10;;;31.70;72.70;;;;;;4916921;29;20281;-76
2021/07/06 12:31:28;;;;;;;0.10;0.10;;;31.90;71.50;;;;;;4916929;29;20213;-77
2021/07/06 12:34:10;;;;;;;0.10;0.10;;;32.10;70.80;;;;;;4917533;29;20265;-77
2021/07/06 12:36:40;;;;;;;0.10;0.10;;;32.50;71.10;;;;;;4916270;29;20213;-75
2021/07/06 12:39:27;;;;;;;0.10;0.10;;;32.90;68.90;;;;;;4915963;29;20611;-75
2021/07/06 12:41:56;;;;;;;0.10;0.10;;;33.40;68.60;;;;;;4915742;29;20206;-75
2021/07/06 12:44:40;;;;;;;0.10;0.10;;;33.80;65.60;;;;;;4915700;29;20626;-75
2021/07/06 12:47:18;;;;;;;0.00;0.00;;;34.50;63.10;;;;;;4915396;29;20202;-76
2021/07/06 12:49:48;;;;;;;0.05;0.05;;;35.30;61.80;;;;;;4915423;29;20242;-75
2021/07/06 12:52:17;;;;;;;0.00;0.00;;;36.10;59.50;;;;;;4915827;29;20209;-77
2021/07/06 12:54:45;;;;;;;0.00;0.00;;;36.40;57.30;;;;;;4915621;29;20257;-75
2021/07/06 12:57:25;;;;;;;0.00;0.00;;;36.60;57.30;;;;;;4915460;29;20210;-76
2021/07/06 13:00:09;;;;;;;0.00;0.00;;;36.80;55.20;;;;;;4915813;29;20229;-75
2021/07/06 13:03:02;;;;;;;0.00;0.00;;;37.30;55.90;;;;;;4915033;29;20284;-75
2021/07/06 13:05:35;;;;;;;0.00;0.00;;;38.00;53.30;;;;;;4915446;29;20216;-76